sensor_id;sensor_type;location;lat;lon;timestamp;P1;durP1;ratioP1;P2;durP2;ratioP2
6013;SDS011;3035;49.928;8.410;2023-11-19T00:01:15;7.00;;;5.53;;
6013;SDS011;3035;49.928;8.410;2023-11-19T00:03:43;8.73;;;5.33;;
6013;SDS011;3035;49.928;8.410;2023-11-19T00:06:10;11.63;;;5.73;;
6013;SDS011;3035;49.928;8.410;2023-11-19T00:08:38;6.37;;;5.57;;
6013;SDS011;3035;49.928;8.410;2023-11-19T00:11:05;9.30;;;5.97;;
6013;SDS011;3035;49.928;8.410;2023-11-19T00:13:32;12.60;;;5.87;;
6013;SDS011;3035;49.928;8.410;2023-11-19T00:16:00;8.33;;;5.50;;
6013;SDS011;3035;49.928;8.410;2023-11-19T00:18:27;7.17;;;5.93;;
6013;SDS011;3035;49.928;8.410;2023-11-19T00:20:55;8.70;;;6.30;;
6013;SDS011;3035;49.928;8.410;2023-11-19T00:23:22;16.13;;;9.10;;
6013;SDS011;3035;49.928;8.410;2023-11-19T00:25:50;12.30;;;8.67;;
6013;SDS011;3035;49.928;8.410;2023-11-19T00:28:17;15.77;;;9.00;;
6013;SDS011;3035;49.928;8.410;2023-11-19T00:30:45;14.63;;;8.40;;
6013;SDS011;3035;49.928;8.410;2023-11-19T00:33:12;9.27;;;7.90;;
6013;SDS011;3035;49.928;8.410;2023-11-19T00:35:39;26.63;;;10.07;;
6013;SDS011;3035;49.928;8.410;2023-11-19T00:38:07;12.63;;;8.90;;
6013;SDS011;3035;49.928;8.410;2023-11-19T00:40:34;10.80;;;8.00;;
6013;SDS011;3035;49.928;8.410;2023-11-19T00:43:02;14.97;;;7.90;;
6013;SDS011;3035;49.928;8.410;2023-11-19T00:45:29;12.77;;;8.10;;
6013;SDS011;3035;49.928;8.410;2023-11-19T00:47:57;17.13;;;8.30;;
6013;SDS011;3035;49.928;8.410;2023-11-19T00:50:24;10.23;;;7.57;;
6013;SDS011;3035;49.928;8.410;2023-11-19T00:52:51;13.10;;;7.57;;
6013;SDS011;3035;49.928;8.410;2023-11-19T00:55:19;9.87;;;7.20;;
6013;SDS011;3035;49.928;8.410;2023-11-19T00:57:46;8.10;;;6.77;;
6013;SDS011;3035;49.928;8.410;2023-11-19T01:00:14;11.43;;;7.97;;
6013;SDS011;3035;49.928;8.410;2023-11-19T01:02:41;11.80;;;7.63;;
6013;SDS011;3035;49.928;8.410;2023-11-19T01:05:09;17.03;;;8.40;;
6013;SDS011;3035;49.928;8.410;2023-11-19T01:07:36;14.43;;;7.80;;
6013;SDS011;3035;49.928;8.410;2023-11-19T01:10:04;13.47;;;8.33;;
6013;SDS011;3035;49.928;8.410;2023-11-19T01:12:32;17.67;;;8.10;;
6013;SDS011;3035;49.928;8.410;2023-11-19T01:15:00;10.27;;;7.87;;
6013;SDS011;3035;49.928;8.410;2023-11-19T01:17:28;11.33;;;7.90;;
6013;SDS011;3035;49.928;8.410;2023-11-19T01:19:57;11.00;;;7.73;;
6013;SDS011;3035;49.928;8.410;2023-11-19T01:22:24;12.90;;;8.17;;
6013;SDS011;3035;49.928;8.410;2023-11-19T01:24:52;11.73;;;7.53;;
6013;SDS011;3035;49.928;8.410;2023-11-19T01:27:20;10.67;;;7.63;;
6013;SDS011;3035;49.928;8.410;2023-11-19T01:29:49;11.50;;;8.13;;
6013;SDS011;3035;49.928;8.410;2023-11-19T01:32:16;26.07;;;9.40;;
6013;SDS011;3035;49.928;8.410;2023-11-19T01:34:44;9.40;;;7.03;;
6013;SDS011;3035;49.928;8.410;2023-11-19T01:37:13;12.87;;;7.33;;
6013;SDS011;3035;49.928;8.410;2023-11-19T01:39:43;10.63;;;6.93;;
6013;SDS011;3035;49.928;8.410;2023-11-19T01:42:12;13.83;;;5.80;;
6013;SDS011;3035;49.928;8.410;2023-11-19T01:44:39;9.50;;;6.07;;
6013;SDS011;3035;49.928;8.410;2023-11-19T01:47:07;11.23;;;7.20;;
6013;SDS011;3035;49.928;8.410;2023-11-19T01:49:35;11.00;;;7.00;;
6013;SDS011;3035;49.928;8.410;2023-11-19T01:52:03;8.53;;;6.77;;
6013;SDS011;3035;49.928;8.410;2023-11-19T01:54:32;7.73;;;6.37;;
6013;SDS011;3035;49.928;8.410;2023-11-19T01:57:01;8.70;;;6.20;;
6013;SDS011;3035;49.928;8.410;2023-11-19T01:59:28;9.50;;;6.93;;
6013;SDS011;3035;49.928;8.410;2023-11-19T02:01:57;12.33;;;6.23;;
6013;SDS011;3035;49.928;8.410;2023-11-19T02:04:25;8.43;;;6.93;;
6013;SDS011;3035;49.928;8.410;2023-11-19T02:06:54;7.33;;;6.27;;
6013;SDS011;3035;49.928;8.410;2023-11-19T02:09:21;8.30;;;6.10;;
6013;SDS011;3035;49.928;8.410;2023-11-19T02:11:49;10.20;;;6.47;;
6013;SDS011;3035;49.928;8.410;2023-11-19T02:14:18;14.83;;;6.10;;
6013;SDS011;3035;49.928;8.410;2023-11-19T02:16:45;8.47;;;6.53;;
6013;SDS011;3035;49.928;8.410;2023-11-19T02:19:14;9.30;;;6.47;;
6013;SDS011;3035;49.928;8.410;2023-11-19T02:21:42;43.87;;;21.17;;
6013;SDS011;3035;49.928;8.410;2023-11-19T02:24:10;12.53;;;8.00;;
6013;SDS011;3035;49.928;8.410;2023-11-19T02:26:39;12.63;;;6.00;;
6013;SDS011;3035;49.928;8.410;2023-11-19T02:29:07;7.43;;;5.83;;
6013;SDS011;3035;49.928;8.410;2023-11-19T02:31:35;10.00;;;6.63;;
6013;SDS011;3035;49.928;8.410;2023-11-19T02:34:03;7.27;;;6.07;;
6013;SDS011;3035;49.928;8.410;2023-11-19T02:36:31;11.80;;;6.60;;
6013;SDS011;3035;49.928;8.410;2023-11-19T02:38:58;8.53;;;5.87;;
6013;SDS011;3035;49.928;8.410;2023-11-19T02:41:26;7.33;;;6.03;;
6013;SDS011;3035;49.928;8.410;2023-11-19T02:43:54;9.27;;;6.17;;
6013;SDS011;3035;49.928;8.410;2023-11-19T02:46:22;9.70;;;5.80;;
6013;SDS011;3035;49.928;8.410;2023-11-19T02:48:51;6.23;;;4.90;;
6013;SDS011;3035;49.928;8.410;2023-11-19T02:51:19;6.47;;;5.10;;
6013;SDS011;3035;49.928;8.410;2023-11-19T02:53:47;6.33;;;4.83;;
6013;SDS011;3035;49.928;8.410;2023-11-19T02:56:15;8.37;;;5.30;;
6013;SDS011;3035;49.928;8.410;2023-11-19T02:58:44;5.93;;;5.33;;
6013;SDS011;3035;49.928;8.410;2023-11-19T03:01:21;6.20;;;5.47;;
6013;SDS011;3035;49.928;8.410;2023-11-19T03:03:59;11.40;;;6.33;;
6013;SDS011;3035;49.928;8.410;2023-11-19T03:06:27;8.33;;;6.27;;
6013;SDS011;3035;49.928;8.410;2023-11-19T03:08:54;7.13;;;5.83;;
6013;SDS011;3035;49.928;8.410;2023-11-19T03:11:21;9.00;;;6.53;;
6013;SDS011;3035;49.928;8.410;2023-11-19T03:13:49;9.53;;;5.60;;
6013;SDS011;3035;49.928;8.410;2023-11-19T03:16:17;5.80;;;5.20;;
6013;SDS011;3035;49.928;8.410;2023-11-19T03:18:45;7.00;;;5.17;;
6013;SDS011;3035;49.928;8.410;2023-11-19T03:21:14;7.47;;;5.63;;
6013;SDS011;3035;49.928;8.410;2023-11-19T03:23:42;6.60;;;5.60;;
6013;SDS011;3035;49.928;8.410;2023-11-19T03:26:10;5.20;;;4.70;;
6013;SDS011;3035;49.928;8.410;2023-11-19T03:28:38;6.00;;;4.80;;
6013;SDS011;3035;49.928;8.410;2023-11-19T03:31:06;6.80;;;5.17;;
6013;SDS011;3035;49.928;8.410;2023-11-19T03:33:35;5.90;;;4.50;;
6013;SDS011;3035;49.928;8.410;2023-11-19T03:36:04;6.20;;;5.10;;
6013;SDS011;3035;49.928;8.410;2023-11-19T03:38:32;5.23;;;4.43;;
6013;SDS011;3035;49.928;8.410;2023-11-19T03:41:01;6.30;;;4.07;;
6013;SDS011;3035;49.928;8.410;2023-11-19T03:43:30;4.23;;;3.83;;
6013;SDS011;3035;49.928;8.410;2023-11-19T03:45:57;6.73;;;4.77;;
6013;SDS011;3035;49.928;8.410;2023-11-19T03:48:24;6.97;;;4.40;;
6013;SDS011;3035;49.928;8.410;2023-11-19T03:50:52;5.90;;;4.13;;
6013;SDS011;3035;49.928;8.410;2023-11-19T03:53:19;8.10;;;4.23;;
6013;SDS011;3035;49.928;8.410;2023-11-19T03:55:47;5.30;;;4.03;;
6013;SDS011;3035;49.928;8.410;2023-11-19T03:58:14;5.30;;;4.00;;
6013;SDS011;3035;49.928;8.410;2023-11-19T04:00:42;5.57;;;3.90;;
6013;SDS011;3035;49.928;8.410;2023-11-19T04:03:09;4.37;;;3.97;;
6013;SDS011;3035;49.928;8.410;2023-11-19T04:05:36;4.20;;;3.90;;
6013;SDS011;3035;49.928;8.410;2023-11-19T04:08:04;3.67;;;3.37;;
6013;SDS011;3035;49.928;8.410;2023-11-19T04:10:31;4.57;;;3.30;;
6013;SDS011;3035;49.928;8.410;2023-11-19T04:12:59;3.10;;;2.80;;
6013;SDS011;3035;49.928;8.410;2023-11-19T04:15:26;3.93;;;3.40;;
6013;SDS011;3035;49.928;8.410;2023-11-19T04:17:54;4.73;;;3.37;;
6013;SDS011;3035;49.928;8.410;2023-11-19T04:20:21;3.57;;;3.20;;
6013;SDS011;3035;49.928;8.410;2023-11-19T04:22:49;3.90;;;2.53;;
6013;SDS011;3035;49.928;8.410;2023-11-19T04:25:16;8.83;;;3.63;;
6013;SDS011;3035;49.928;8.410;2023-11-19T04:27:43;4.07;;;2.53;;
6013;SDS011;3035;49.928;8.410;2023-11-19T04:30:11;3.23;;;2.50;;
6013;SDS011;3035;49.928;8.410;2023-11-19T04:32:38;3.80;;;2.77;;
6013;SDS011;3035;49.928;8.410;2023-11-19T04:35:06;3.13;;;2.47;;
6013;SDS011;3035;49.928;8.410;2023-11-19T04:37:34;4.90;;;2.67;;
6013;SDS011;3035;49.928;8.410;2023-11-19T04:40:01;2.90;;;2.60;;
6013;SDS011;3035;49.928;8.410;2023-11-19T04:42:29;2.63;;;2.40;;
6013;SDS011;3035;49.928;8.410;2023-11-19T04:44:56;2.83;;;2.63;;
6013;SDS011;3035;49.928;8.410;2023-11-19T04:47:23;2.87;;;2.67;;
6013;SDS011;3035;49.928;8.410;2023-11-19T04:49:51;2.83;;;2.63;;
6013;SDS011;3035;49.928;8.410;2023-11-19T04:52:18;3.33;;;2.60;;
6013;SDS011;3035;49.928;8.410;2023-11-19T04:54:46;2.63;;;2.30;;
6013;SDS011;3035;49.928;8.410;2023-11-19T04:57:13;1.90;;;1.80;;
6013;SDS011;3035;49.928;8.410;2023-11-19T04:59:41;3.00;;;2.30;;
6013;SDS011;3035;49.928;8.410;2023-11-19T05:02:08;2.00;;;1.67;;
6013;SDS011;3035;49.928;8.410;2023-11-19T05:04:36;1.80;;;1.70;;
6013;SDS011;3035;49.928;8.410;2023-11-19T05:07:05;2.10;;;1.90;;
6013;SDS011;3035;49.928;8.410;2023-11-19T05:09:33;1.50;;;1.40;;
6013;SDS011;3035;49.928;8.410;2023-11-19T05:12:00;2.00;;;1.40;;
6013;SDS011;3035;49.928;8.410;2023-11-19T05:14:28;1.40;;;1.30;;
6013;SDS011;3035;49.928;8.410;2023-11-19T05:16:55;1.20;;;1.10;;
6013;SDS011;3035;49.928;8.410;2023-11-19T05:19:23;11.13;;;1.30;;
6013;SDS011;3035;49.928;8.410;2023-11-19T05:21:50;2.07;;;1.07;;
6013;SDS011;3035;49.928;8.410;2023-11-19T05:24:17;1.10;;;1.00;;
6013;SDS011;3035;49.928;8.410;2023-11-19T05:26:45;0.70;;;0.70;;
6013;SDS011;3035;49.928;8.410;2023-11-19T05:29:12;1.20;;;1.00;;
6013;SDS011;3035;49.928;8.410;2023-11-19T05:31:40;1.00;;;1.00;;
6013;SDS011;3035;49.928;8.410;2023-11-19T05:34:07;1.13;;;0.90;;
6013;SDS011;3035;49.928;8.410;2023-11-19T05:36:35;2.40;;;0.90;;
6013;SDS011;3035;49.928;8.410;2023-11-19T05:39:02;1.00;;;0.90;;
6013;SDS011;3035;49.928;8.410;2023-11-19T05:41:29;1.10;;;1.03;;
6013;SDS011;3035;49.928;8.410;2023-11-19T05:43:57;1.00;;;0.90;;
6013;SDS011;3035;49.928;8.410;2023-11-19T05:46:24;1.33;;;1.17;;
6013;SDS011;3035;49.928;8.410;2023-11-19T05:48:52;1.17;;;1.17;;
6013;SDS011;3035;49.928;8.410;2023-11-19T05:51:19;2.07;;;1.20;;
6013;SDS011;3035;49.928;8.410;2023-11-19T05:53:47;1.43;;;0.90;;
6013;SDS011;3035;49.928;8.410;2023-11-19T05:56:14;1.10;;;1.00;;
6013;SDS011;3035;49.928;8.410;2023-11-19T05:58:41;1.00;;;1.00;;
6013;SDS011;3035;49.928;8.410;2023-11-19T06:01:09;1.70;;;1.60;;
6013;SDS011;3035;49.928;8.410;2023-11-19T06:03:36;1.97;;;1.77;;
6013;SDS011;3035;49.928;8.410;2023-11-19T06:06:04;1.10;;;1.00;;
6013;SDS011;3035;49.928;8.410;2023-11-19T06:08:32;2.23;;;1.30;;
6013;SDS011;3035;49.928;8.410;2023-11-19T06:10:59;1.30;;;1.20;;
6013;SDS011;3035;49.928;8.410;2023-11-19T06:13:26;1.60;;;1.50;;
6013;SDS011;3035;49.928;8.410;2023-11-19T06:15:54;1.60;;;1.50;;
6013;SDS011;3035;49.928;8.410;2023-11-19T06:18:21;1.53;;;1.40;;
6013;SDS011;3035;49.928;8.410;2023-11-19T06:20:49;1.43;;;1.33;;
6013;SDS011;3035;49.928;8.410;2023-11-19T06:23:16;1.60;;;1.50;;
6013;SDS011;3035;49.928;8.410;2023-11-19T06:25:43;3.50;;;1.40;;
6013;SDS011;3035;49.928;8.410;2023-11-19T06:28:11;1.77;;;1.67;;
6013;SDS011;3035;49.928;8.410;2023-11-19T06:30:38;1.67;;;1.57;;
6013;SDS011;3035;49.928;8.410;2023-11-19T06:33:06;1.87;;;1.50;;
6013;SDS011;3035;49.928;8.410;2023-11-19T06:35:33;1.83;;;1.73;;
6013;SDS011;3035;49.928;8.410;2023-11-19T06:38:01;3.20;;;2.10;;
6013;SDS011;3035;49.928;8.410;2023-11-19T06:40:29;2.00;;;1.80;;
6013;SDS011;3035;49.928;8.410;2023-11-19T06:42:56;1.90;;;1.80;;
6013;SDS011;3035;49.928;8.410;2023-11-19T06:45:24;2.80;;;1.93;;
6013;SDS011;3035;49.928;8.410;2023-11-19T06:47:51;1.90;;;1.80;;
6013;SDS011;3035;49.928;8.410;2023-11-19T06:50:19;2.60;;;2.40;;
6013;SDS011;3035;49.928;8.410;2023-11-19T06:52:46;1.93;;;1.83;;
6013;SDS011;3035;49.928;8.410;2023-11-19T06:55:13;3.57;;;2.20;;
6013;SDS011;3035;49.928;8.410;2023-11-19T06:57:41;2.00;;;1.90;;
6013;SDS011;3035;49.928;8.410;2023-11-19T07:00:08;2.67;;;2.20;;
6013;SDS011;3035;49.928;8.410;2023-11-19T07:02:36;2.30;;;1.60;;
6013;SDS011;3035;49.928;8.410;2023-11-19T07:05:04;2.33;;;2.10;;
6013;SDS011;3035;49.928;8.410;2023-11-19T07:07:31;1.90;;;1.73;;
6013;SDS011;3035;49.928;8.410;2023-11-19T07:09:59;1.90;;;1.80;;
6013;SDS011;3035;49.928;8.410;2023-11-19T07:12:27;3.23;;;1.60;;
6013;SDS011;3035;49.928;8.410;2023-11-19T07:14:54;1.77;;;1.67;;
6013;SDS011;3035;49.928;8.410;2023-11-19T07:17:22;2.50;;;1.80;;
6013;SDS011;3035;49.928;8.410;2023-11-19T07:19:49;2.03;;;1.57;;
6013;SDS011;3035;49.928;8.410;2023-11-19T07:22:17;3.90;;;2.17;;
6013;SDS011;3035;49.928;8.410;2023-11-19T07:24:44;8.30;;;2.27;;
6013;SDS011;3035;49.928;8.410;2023-11-19T07:27:11;2.13;;;1.97;;
6013;SDS011;3035;49.928;8.410;2023-11-19T07:29:39;3.60;;;1.73;;
6013;SDS011;3035;49.928;8.410;2023-11-19T07:32:06;1.90;;;1.80;;
6013;SDS011;3035;49.928;8.410;2023-11-19T07:34:34;5.90;;;2.20;;
6013;SDS011;3035;49.928;8.410;2023-11-19T07:37:01;2.30;;;1.90;;
6013;SDS011;3035;49.928;8.410;2023-11-19T07:39:29;4.30;;;2.37;;
6013;SDS011;3035;49.928;8.410;2023-11-19T07:41:56;3.63;;;2.00;;
6013;SDS011;3035;49.928;8.410;2023-11-19T07:44:24;2.40;;;2.20;;
6013;SDS011;3035;49.928;8.410;2023-11-19T07:46:51;6.43;;;2.13;;
6013;SDS011;3035;49.928;8.410;2023-11-19T07:49:18;3.47;;;2.30;;
6013;SDS011;3035;49.928;8.410;2023-11-19T07:51:46;4.07;;;2.30;;
6013;SDS011;3035;49.928;8.410;2023-11-19T07:54:13;3.67;;;2.43;;
6013;SDS011;3035;49.928;8.410;2023-11-19T07:56:41;2.73;;;2.53;;
6013;SDS011;3035;49.928;8.410;2023-11-19T07:59:08;4.47;;;2.87;;
6013;SDS011;3035;49.928;8.410;2023-11-19T08:01:36;18.93;;;2.87;;
6013;SDS011;3035;49.928;8.410;2023-11-19T08:04:03;2.53;;;2.33;;
6013;SDS011;3035;49.928;8.410;2023-11-19T08:06:31;3.10;;;2.60;;
6013;SDS011;3035;49.928;8.410;2023-11-19T08:08:58;2.70;;;2.50;;
6013;SDS011;3035;49.928;8.410;2023-11-19T08:11:26;5.27;;;2.50;;
6013;SDS011;3035;49.928;8.410;2023-11-19T08:13:53;6.80;;;3.20;;
6013;SDS011;3035;49.928;8.410;2023-11-19T08:16:20;3.27;;;2.97;;
6013;SDS011;3035;49.928;8.410;2023-11-19T08:18:48;3.00;;;2.77;;
6013;SDS011;3035;49.928;8.410;2023-11-19T08:21:15;3.53;;;2.87;;
6013;SDS011;3035;49.928;8.410;2023-11-19T08:23:43;3.33;;;3.03;;
6013;SDS011;3035;49.928;8.410;2023-11-19T08:26:10;4.73;;;4.23;;
6013;SDS011;3035;49.928;8.410;2023-11-19T08:28:38;7.20;;;3.90;;
6013;SDS011;3035;49.928;8.410;2023-11-19T08:31:05;7.13;;;3.83;;
6013;SDS011;3035;49.928;8.410;2023-11-19T08:33:32;7.90;;;3.37;;
6013;SDS011;3035;49.928;8.410;2023-11-19T08:36:00;4.27;;;3.90;;
6013;SDS011;3035;49.928;8.410;2023-11-19T08:38:27;12.13;;;3.60;;
6013;SDS011;3035;49.928;8.410;2023-11-19T08:40:55;5.10;;;3.63;;
6013;SDS011;3035;49.928;8.410;2023-11-19T08:43:25;8.63;;;4.00;;
6013;SDS011;3035;49.928;8.410;2023-11-19T08:45:52;4.63;;;4.07;;
6013;SDS011;3035;49.928;8.410;2023-11-19T08:48:20;4.83;;;3.83;;
6013;SDS011;3035;49.928;8.410;2023-11-19T08:50:47;6.20;;;5.00;;
6013;SDS011;3035;49.928;8.410;2023-11-19T08:53:15;9.90;;;5.50;;
6013;SDS011;3035;49.928;8.410;2023-11-19T08:55:42;7.43;;;5.13;;
6013;SDS011;3035;49.928;8.410;2023-11-19T08:58:09;11.33;;;5.50;;
6013;SDS011;3035;49.928;8.410;2023-11-19T09:00:37;18.77;;;9.37;;
6013;SDS011;3035;49.928;8.410;2023-11-19T09:03:04;11.40;;;7.43;;
6013;SDS011;3035;49.928;8.410;2023-11-19T09:05:32;11.90;;;7.17;;
6013;SDS011;3035;49.928;8.410;2023-11-19T09:07:59;10.40;;;5.87;;
6013;SDS011;3035;49.928;8.410;2023-11-19T09:10:27;8.13;;;6.00;;
6013;SDS011;3035;49.928;8.410;2023-11-19T09:12:54;9.10;;;6.53;;
6013;SDS011;3035;49.928;8.410;2023-11-19T09:15:22;8.40;;;5.90;;
6013;SDS011;3035;49.928;8.410;2023-11-19T09:17:49;6.60;;;4.27;;
6013;SDS011;3035;49.928;8.410;2023-11-19T09:20:17;13.13;;;3.83;;
6013;SDS011;3035;49.928;8.410;2023-11-19T09:22:45;8.13;;;2.70;;
6013;SDS011;3035;49.928;8.410;2023-11-19T09:25:14;5.03;;;2.50;;
6013;SDS011;3035;49.928;8.410;2023-11-19T09:27:42;7.70;;;2.60;;
6013;SDS011;3035;49.928;8.410;2023-11-19T09:30:09;2.23;;;1.87;;
6013;SDS011;3035;49.928;8.410;2023-11-19T09:32:38;13.93;;;2.33;;
6013;SDS011;3035;49.928;8.410;2023-11-19T09:35:07;12.33;;;2.17;;
6013;SDS011;3035;49.928;8.410;2023-11-19T09:37:36;5.30;;;2.40;;
6013;SDS011;3035;49.928;8.410;2023-11-19T09:40:03;9.03;;;2.50;;
6013;SDS011;3035;49.928;8.410;2023-11-19T09:42:32;6.83;;;2.10;;
6013;SDS011;3035;49.928;8.410;2023-11-19T09:44:59;9.20;;;2.53;;
6013;SDS011;3035;49.928;8.410;2023-11-19T09:47:26;5.53;;;2.37;;
6013;SDS011;3035;49.928;8.410;2023-11-19T09:49:54;9.30;;;2.37;;
6013;SDS011;3035;49.928;8.410;2023-11-19T09:52:21;20.03;;;3.00;;
6013;SDS011;3035;49.928;8.410;2023-11-19T09:54:48;7.33;;;2.13;;
6013;SDS011;3035;49.928;8.410;2023-11-19T09:57:16;3.10;;;2.00;;
6013;SDS011;3035;49.928;8.410;2023-11-19T09:59:43;6.90;;;1.77;;
6013;SDS011;3035;49.928;8.410;2023-11-19T10:02:11;7.63;;;2.47;;
6013;SDS011;3035;49.928;8.410;2023-11-19T10:04:38;9.70;;;2.70;;
6013;SDS011;3035;49.928;8.410;2023-11-19T10:07:06;6.77;;;1.93;;
6013;SDS011;3035;49.928;8.410;2023-11-19T10:09:33;8.70;;;2.03;;
6013;SDS011;3035;49.928;8.410;2023-11-19T10:12:01;6.73;;;1.63;;
6013;SDS011;3035;49.928;8.410;2023-11-19T10:14:28;9.53;;;2.07;;
6013;SDS011;3035;49.928;8.410;2023-11-19T10:16:55;3.20;;;1.63;;
6013;SDS011;3035;49.928;8.410;2023-11-19T10:19:23;13.30;;;2.17;;
6013;SDS011;3035;49.928;8.410;2023-11-19T10:21:50;12.17;;;2.37;;
6013;SDS011;3035;49.928;8.410;2023-11-19T10:24:25;8.50;;;2.10;;
6013;SDS011;3035;49.928;8.410;2023-11-19T10:26:45;9.57;;;2.13;;
6013;SDS011;3035;49.928;8.410;2023-11-19T10:29:13;8.10;;;2.30;;
6013;SDS011;3035;49.928;8.410;2023-11-19T10:31:40;5.33;;;1.97;;
6013;SDS011;3035;49.928;8.410;2023-11-19T10:34:15;6.77;;;1.77;;
6013;SDS011;3035;49.928;8.410;2023-11-19T10:36:38;6.80;;;2.00;;
6013;SDS011;3035;49.928;8.410;2023-11-19T10:39:08;7.90;;;2.20;;
6013;SDS011;3035;49.928;8.410;2023-11-19T10:41:35;6.97;;;1.70;;
6013;SDS011;3035;49.928;8.410;2023-11-19T10:44:03;8.50;;;1.80;;
6013;SDS011;3035;49.928;8.410;2023-11-19T10:46:38;11.33;;;2.40;;
6013;SDS011;3035;49.928;8.410;2023-11-19T10:49:04;8.13;;;2.30;;
6013;SDS011;3035;49.928;8.410;2023-11-19T10:51:31;5.23;;;2.47;;
6013;SDS011;3035;49.928;8.410;2023-11-19T10:54:01;4.97;;;1.53;;
6013;SDS011;3035;49.928;8.410;2023-11-19T10:56:26;11.10;;;1.83;;
6013;SDS011;3035;49.928;8.410;2023-11-19T10:58:53;4.03;;;1.87;;
6013;SDS011;3035;49.928;8.410;2023-11-19T11:01:21;6.97;;;2.10;;
6013;SDS011;3035;49.928;8.410;2023-11-19T11:03:48;9.07;;;2.00;;
6013;SDS011;3035;49.928;8.410;2023-11-19T11:06:16;8.67;;;1.97;;
6013;SDS011;3035;49.928;8.410;2023-11-19T11:08:43;14.17;;;2.20;;
6013;SDS011;3035;49.928;8.410;2023-11-19T11:11:10;5.93;;;2.03;;
6013;SDS011;3035;49.928;8.410;2023-11-19T11:13:38;8.37;;;1.70;;
6013;SDS011;3035;49.928;8.410;2023-11-19T11:16:05;9.57;;;1.97;;
6013;SDS011;3035;49.928;8.410;2023-11-19T11:18:33;6.80;;;2.13;;
6013;SDS011;3035;49.928;8.410;2023-11-19T11:21:05;8.90;;;1.80;;
6013;SDS011;3035;49.928;8.410;2023-11-19T11:23:36;10.47;;;1.80;;
6013;SDS011;3035;49.928;8.410;2023-11-19T11:26:23;7.37;;;1.53;;
6013;SDS011;3035;49.928;8.410;2023-11-19T11:28:59;6.23;;;1.97;;
6013;SDS011;3035;49.928;8.410;2023-11-19T11:31:29;11.93;;;1.63;;
6013;SDS011;3035;49.928;8.410;2023-11-19T11:39:30;3.33;;;1.73;;
6013;SDS011;3035;49.928;8.410;2023-11-19T11:44:59;4.27;;;1.40;;
6013;SDS011;3035;49.928;8.410;2023-11-19T11:50:23;7.40;;;1.70;;
6013;SDS011;3035;49.928;8.410;2023-11-19T11:53:13;4.50;;;1.67;;
6013;SDS011;3035;49.928;8.410;2023-11-19T11:55:36;4.27;;;1.40;;
6013;SDS011;3035;49.928;8.410;2023-11-19T11:58:04;5.37;;;1.40;;
6013;SDS011;3035;49.928;8.410;2023-11-19T12:00:37;5.00;;;1.50;;
6013;SDS011;3035;49.928;8.410;2023-11-19T12:03:05;5.63;;;1.97;;
6013;SDS011;3035;49.928;8.410;2023-11-19T12:05:32;11.50;;;1.73;;
6013;SDS011;3035;49.928;8.410;2023-11-19T12:08:00;5.10;;;1.40;;
6013;SDS011;3035;49.928;8.410;2023-11-19T12:10:30;5.23;;;1.90;;
6013;SDS011;3035;49.928;8.410;2023-11-19T12:12:59;7.53;;;1.40;;
6013;SDS011;3035;49.928;8.410;2023-11-19T12:15:26;8.00;;;1.90;;
6013;SDS011;3035;49.928;8.410;2023-11-19T12:17:54;6.80;;;1.67;;
6013;SDS011;3035;49.928;8.410;2023-11-19T12:20:22;5.73;;;1.87;;
6013;SDS011;3035;49.928;8.410;2023-11-19T12:22:52;8.07;;;1.73;;
6013;SDS011;3035;49.928;8.410;2023-11-19T12:25:17;11.63;;;1.80;;
6013;SDS011;3035;49.928;8.410;2023-11-19T12:27:46;9.90;;;2.00;;
6013;SDS011;3035;49.928;8.410;2023-11-19T12:30:12;6.83;;;1.60;;
6013;SDS011;3035;49.928;8.410;2023-11-19T12:32:40;11.63;;;2.03;;
6013;SDS011;3035;49.928;8.410;2023-11-19T12:35:08;6.30;;;1.67;;
6013;SDS011;3035;49.928;8.410;2023-11-19T12:37:38;16.50;;;2.17;;
6013;SDS011;3035;49.928;8.410;2023-11-19T12:40:02;6.97;;;1.93;;
6013;SDS011;3035;49.928;8.410;2023-11-19T12:42:35;11.77;;;1.87;;
6013;SDS011;3035;49.928;8.410;2023-11-19T12:45:02;9.50;;;1.83;;
6013;SDS011;3035;49.928;8.410;2023-11-19T12:47:30;6.90;;;2.30;;
6013;SDS011;3035;49.928;8.410;2023-11-19T12:49:57;3.83;;;1.63;;
6013;SDS011;3035;49.928;8.410;2023-11-19T12:52:25;12.33;;;2.20;;
6013;SDS011;3035;49.928;8.410;2023-11-19T12:54:52;6.20;;;1.80;;
6013;SDS011;3035;49.928;8.410;2023-11-19T12:57:19;10.00;;;2.30;;
6013;SDS011;3035;49.928;8.410;2023-11-19T13:02:21;9.67;;;1.67;;
6013;SDS011;3035;49.928;8.410;2023-11-19T13:04:48;7.30;;;1.80;;
6013;SDS011;3035;49.928;8.410;2023-11-19T13:07:20;9.57;;;1.83;;
6013;SDS011;3035;49.928;8.410;2023-11-19T13:09:43;16.60;;;2.00;;
6013;SDS011;3035;49.928;8.410;2023-11-19T13:12:12;9.53;;;1.90;;
6013;SDS011;3035;49.928;8.410;2023-11-19T13:14:39;5.17;;;1.50;;
6013;SDS011;3035;49.928;8.410;2023-11-19T13:17:06;10.10;;;1.93;;
6013;SDS011;3035;49.928;8.410;2023-11-19T13:19:34;5.70;;;1.80;;
6013;SDS011;3035;49.928;8.410;2023-11-19T13:22:01;6.27;;;1.40;;
6013;SDS011;3035;49.928;8.410;2023-11-19T13:24:29;5.07;;;1.60;;
6013;SDS011;3035;49.928;8.410;2023-11-19T13:26:56;12.43;;;2.43;;
6013;SDS011;3035;49.928;8.410;2023-11-19T13:29:24;8.50;;;1.83;;
6013;SDS011;3035;49.928;8.410;2023-11-19T13:31:51;9.47;;;2.27;;
6013;SDS011;3035;49.928;8.410;2023-11-19T13:34:19;21.17;;;2.03;;
6013;SDS011;3035;49.928;8.410;2023-11-19T13:36:46;5.03;;;1.33;;
6013;SDS011;3035;49.928;8.410;2023-11-19T13:39:14;5.27;;;1.67;;
6013;SDS011;3035;49.928;8.410;2023-11-19T13:41:41;6.97;;;1.63;;
6013;SDS011;3035;49.928;8.410;2023-11-19T13:44:08;5.10;;;1.23;;
6013;SDS011;3035;49.928;8.410;2023-11-19T13:46:36;9.37;;;1.93;;
6013;SDS011;3035;49.928;8.410;2023-11-19T13:49:03;11.37;;;1.90;;
6013;SDS011;3035;49.928;8.410;2023-11-19T13:51:31;11.30;;;1.87;;
6013;SDS011;3035;49.928;8.410;2023-11-19T13:53:58;8.40;;;1.80;;
6013;SDS011;3035;49.928;8.410;2023-11-19T13:56:26;6.43;;;1.80;;
6013;SDS011;3035;49.928;8.410;2023-11-19T13:58:53;7.27;;;1.63;;
6013;SDS011;3035;49.928;8.410;2023-11-19T14:01:20;5.50;;;1.50;;
6013;SDS011;3035;49.928;8.410;2023-11-19T14:03:48;11.50;;;2.20;;
6013;SDS011;3035;49.928;8.410;2023-11-19T14:06:15;5.63;;;1.60;;
6013;SDS011;3035;49.928;8.410;2023-11-19T14:08:43;13.07;;;1.87;;
6013;SDS011;3035;49.928;8.410;2023-11-19T14:11:10;9.63;;;2.07;;
6013;SDS011;3035;49.928;8.410;2023-11-19T14:13:38;6.90;;;2.00;;
6013;SDS011;3035;49.928;8.410;2023-11-19T14:16:05;9.77;;;1.90;;
6013;SDS011;3035;49.928;8.410;2023-11-19T14:18:33;4.50;;;1.40;;
6013;SDS011;3035;49.928;8.410;2023-11-19T14:21:00;9.07;;;1.90;;
6013;SDS011;3035;49.928;8.410;2023-11-19T14:23:28;10.73;;;2.00;;
6013;SDS011;3035;49.928;8.410;2023-11-19T14:25:55;8.53;;;1.73;;
6013;SDS011;3035;49.928;8.410;2023-11-19T14:28:23;5.30;;;1.73;;
6013;SDS011;3035;49.928;8.410;2023-11-19T14:30:50;6.13;;;1.63;;
6013;SDS011;3035;49.928;8.410;2023-11-19T14:33:17;5.63;;;1.93;;
6013;SDS011;3035;49.928;8.410;2023-11-19T14:35:45;6.87;;;2.03;;
6013;SDS011;3035;49.928;8.410;2023-11-19T14:38:12;7.10;;;2.20;;
6013;SDS011;3035;49.928;8.410;2023-11-19T14:40:40;10.23;;;2.03;;
6013;SDS011;3035;49.928;8.410;2023-11-19T14:43:07;9.17;;;1.53;;
6013;SDS011;3035;49.928;8.410;2023-11-19T14:45:35;15.00;;;2.10;;
6013;SDS011;3035;49.928;8.410;2023-11-19T14:48:02;10.53;;;1.80;;
6013;SDS011;3035;49.928;8.410;2023-11-19T14:50:30;6.37;;;1.90;;
6013;SDS011;3035;49.928;8.410;2023-11-19T14:52:57;8.23;;;2.10;;
6013;SDS011;3035;49.928;8.410;2023-11-19T14:55:25;10.13;;;2.43;;
6013;SDS011;3035;49.928;8.410;2023-11-19T14:57:52;7.03;;;2.03;;
6013;SDS011;3035;49.928;8.410;2023-11-19T15:00:19;6.90;;;1.70;;
6013;SDS011;3035;49.928;8.410;2023-11-19T15:02:47;6.37;;;1.60;;
6013;SDS011;3035;49.928;8.410;2023-11-19T15:05:14;9.23;;;1.60;;
6013;SDS011;3035;49.928;8.410;2023-11-19T15:07:42;12.70;;;2.10;;
6013;SDS011;3035;49.928;8.410;2023-11-19T15:10:09;16.23;;;3.87;;
6013;SDS011;3035;49.928;8.410;2023-11-19T15:12:37;24.07;;;8.50;;
6013;SDS011;3035;49.928;8.410;2023-11-19T15:15:06;10.13;;;3.10;;
6013;SDS011;3035;49.928;8.410;2023-11-19T15:17:33;5.67;;;1.83;;
6013;SDS011;3035;49.928;8.410;2023-11-19T15:20:02;9.13;;;1.67;;
6013;SDS011;3035;49.928;8.410;2023-11-19T15:22:29;11.07;;;2.40;;
6013;SDS011;3035;49.928;8.410;2023-11-19T15:24:57;6.87;;;2.10;;
6013;SDS011;3035;49.928;8.410;2023-11-19T15:27:24;8.57;;;1.90;;
6013;SDS011;3035;49.928;8.410;2023-11-19T15:29:51;10.53;;;2.80;;